Terminal Aerodrome Forecast
Issued by NWS

Home | Current Version | Previous Version | Text Only | Print | Product List | Glossary On
Versions: 1 2 3 4 5 6 7 8 9 10 11 12 13 14 15 16 17
000
FTUS46 KLOX 241100
TAFSBP
TAF
KSBP 241130Z 2412/2512 VRB03KT P6SM SKC
     FM241500 32010KT P6SM SKC
     FM241900 31018G28KT P6SM SKC
     FM250400 32008KT P6SM SKC
     FM250800 VRB03KT P6SM SKC=

USA.gov is the U.S. government's official web portal to all federal, state and local government web resources and services.